Time;durP1;ratioP1;P1;durP2;ratioP2;P2;SDS_P1;SDS_P2;PMS_P1;PMS_P2;Temp;Humidity;BMP_temperature;BMP_pressure;BME280_temperature;BME280_humidity;BME280_pressure;Samples;Min_cycle;Max_cycle;Signal;HPM_P1;HPM_P2
2022/03/06 00:01:49;;;;;;;32.05;16.45;;;;;;;3.85;92.93;99709.16;5070239;28;20016;-52
2022/03/06 00:04:15;;;;;;;38.88;19.65;;;;;;;3.69;94.10;99730.97;5070396;28;20047;-53
2022/03/06 00:06:41;;;;;;;38.92;20.77;;;;;;;3.76;93.68;99704.84;5070394;28;20097;-53
2022/03/06 00:09:06;;;;;;;38.10;20.98;;;;;;;3.82;93.12;99709.47;5070286;28;20028;-50
2022/03/06 00:11:32;;;;;;;36.95;20.77;;;;;;;3.80;92.75;99712.25;5070500;28;20020;-49
2022/03/06 00:13:57;;;;;;;36.40;19.17;;;;;;;3.77;93.86;99711.75;5070637;28;20034;-50
2022/03/06 00:16:23;;;;;;;33.08;16.95;;;;;;;3.89;92.97;99727.09;5070372;28;20134;-53
2022/03/06 00:18:48;;;;;;;39.90;21.25;;;;;;;3.72;93.37;99705.16;5070370;28;20028;-53
2022/03/06 00:21:13;;;;;;;41.72;20.45;;;;;;;3.86;93.30;99697.63;5070515;28;20122;-52
2022/03/06 00:23:39;;;;;;;35.45;18.25;;;;;;;3.79;93.66;99721.16;5070095;28;20501;-51
2022/03/06 00:26:04;;;;;;;34.40;16.88;;;;;;;3.75;94.60;99696.13;5063511;28;20009;-52
2022/03/06 00:28:30;;;;;;;34.22;18.13;;;;;;;3.77;93.74;99695.94;5050190;28;20093;-52
2022/03/06 00:30:56;;;;;;;37.80;19.35;;;;;;;3.70;93.47;99707.13;5049955;28;20025;-51
2022/03/06 00:33:21;;;;;;;40.22;21.33;;;;;;;3.80;93.10;99700.91;5049910;28;20139;-52
2022/03/06 00:35:46;;;;;;;34.22;20.25;;;;;;;3.90;92.96;99702.44;5049604;28;20017;-53
2022/03/06 00:38:12;;;;;;;40.95;20.40;;;;;;;3.59;93.83;99714.50;5049736;28;20017;-53
2022/03/06 00:40:37;;;;;;;34.05;17.67;;;;;;;3.62;93.98;99730.78;5049816;28;20024;-51
2022/03/06 00:43:03;;;;;;;35.08;19.77;;;;;;;3.65;93.67;99711.22;5049769;28;20155;-51
2022/03/06 00:45:28;;;;;;;40.00;21.05;;;;;;;3.65;94.53;99690.16;5050002;28;20032;-52
2022/03/06 00:47:54;;;;;;;37.72;20.08;;;;;;;3.69;93.47;99696.75;5052957;28;20025;-53
2022/03/06 00:50:19;;;;;;;39.13;20.98;;;;;;;3.87;92.47;99694.84;5055013;28;20027;-50
2022/03/06 00:52:45;;;;;;;36.88;18.48;;;;;;;3.69;92.97;99699.38;5073577;28;20013;-51
2022/03/06 00:55:10;;;;;;;31.88;16.00;;;;;;;3.50;93.89;99709.22;5055598;28;20031;-50
2022/03/06 00:57:36;;;;;;;38.85;20.05;;;;;;;3.46;94.48;99693.88;5073453;28;20452;-50
2022/03/06 01:00:01;;;;;;;39.20;21.40;;;;;;;3.62;93.67;99679.97;5055334;28;20038;-51
2022/03/06 01:02:27;;;;;;;39.10;20.88;;;;;;;3.78;93.07;99679.19;5073463;28;20020;-50
2022/03/06 01:04:53;;;;;;;37.80;20.27;;;;;;;3.69;92.05;99678.31;5073267;28;20073;-52
2022/03/06 01:07:18;;;;;;;33.45;18.98;;;;;;;3.41;92.51;99657.53;5073049;28;20040;-51
2022/03/06 01:09:43;;;;;;;38.72;20.27;;;;;;;3.65;92.10;99679.63;5073122;28;20028;-51
2022/03/06 01:12:09;;;;;;;36.15;19.98;;;;;;;3.60;92.44;99680.13;5073489;28;20028;-39
2022/03/06 01:14:35;;;;;;;33.67;17.85;;;;;;;3.79;91.50;99686.09;5055242;28;20028;-38
2022/03/06 01:17:00;;;;;;;42.92;22.55;;;;;;;3.79;92.27;99692.19;5072915;28;20098;-38
2022/03/06 01:19:25;;;;;;;42.08;21.50;;;;;;;3.86;91.88;99687.91;5073244;28;20025;-38
2022/03/06 01:21:51;;;;;;;40.33;21.90;;;;;;;3.74;92.10;99676.06;5073038;28;20449;-38
2022/03/06 01:24:16;;;;;;;35.20;17.80;;;;;;;3.68;91.39;99688.03;5072977;28;20053;-38
2022/03/06 01:26:42;;;;;;;34.60;17.50;;;;;;;3.47;92.38;99688.47;5061107;28;20473;-38
2022/03/06 01:29:07;;;;;;;36.25;20.55;;;;;;;3.60;92.23;99674.88;5053147;28;20027;-38
2022/03/06 01:31:33;;;;;;;38.22;18.70;;;;;;;3.38;93.19;99678.88;5052854;28;20032;-38
2022/03/06 01:33:58;;;;;;;36.33;19.23;;;;;;;3.45;92.40;99682.53;5052942;28;20459;-38
2022/03/06 01:36:24;;;;;;;38.25;21.05;;;;;;;3.56;92.89;99677.97;5052811;28;20531;-38
2022/03/06 01:38:49;;;;;;;35.28;19.67;;;;;;;3.55;92.14;99673.69;5052657;28;20223;-38
2022/03/06 01:41:15;;;;;;;37.60;20.35;;;;;;;3.35;92.65;99679.22;5052569;28;20036;-38
2022/03/06 01:43:40;;;;;;;36.42;20.30;;;;;;;3.40;92.22;99676.09;5052482;28;20090;-38
2022/03/06 01:46:05;;;;;;;35.30;19.48;;;;;;;3.26;92.00;99688.06;5052469;28;20025;-38
2022/03/06 01:48:31;;;;;;;35.50;17.65;;;;;;;3.32;92.56;99679.53;5052452;28;20021;-38
2022/03/06 01:50:56;;;;;;;38.10;19.92;;;;;;;3.20;93.52;99671.09;5052455;28;20370;-38
2022/03/06 01:53:22;;;;;;;36.20;20.20;;;;;;;3.57;92.63;99669.09;5052272;28;20027;-38
2022/03/06 01:55:47;;;;;;;41.65;21.40;;;;;;;3.38;92.54;99662.28;5051974;28;20033;-38
2022/03/06 01:58:13;;;;;;;34.72;19.25;;;;;;;3.37;92.06;99658.84;5051224;28;20033;-38
2022/03/06 02:00:44;;;;;;;33.92;17.92;;;;;;;3.09;92.82;99669.56;5051664;28;20017;-38
2022/03/06 02:03:09;;;;;;;31.45;18.15;;;;;;;2.91;93.33;99671.41;5052176;28;20027;-38
2022/03/06 02:05:35;;;;;;;28.98;14.82;;;;;;;2.96;93.57;99686.75;5052074;28;20020;-38
2022/03/06 02:08:01;;;;;;;33.20;18.35;;;;;;;3.01;93.66;99666.06;5033602;28;20115;-38
2022/03/06 02:10:26;;;;;;;30.85;15.95;;;;;;;3.08;92.52;99682.84;5051623;28;20024;-38
2022/03/06 02:12:51;;;;;;;29.17;15.15;;;;;;;2.82;93.39;99688.13;5051964;28;20428;-38
2022/03/06 02:15:17;;;;;;;34.92;18.80;;;;;;;2.72;93.68;99667.19;5051841;28;20044;-38
2022/03/06 02:17:43;;;;;;;35.28;18.55;;;;;;;3.06;92.92;99677.75;5051971;28;20044;-38
2022/03/06 02:20:19;;;;;;;34.97;18.92;;;;;;;3.22;92.13;99678.81;5051669;28;20094;-38
2022/03/06 02:22:49;;;;;;;32.65;17.30;;;;;;;3.14;91.51;99679.59;5051644;28;20049;-38
2022/03/06 02:25:16;;;;;;;31.55;14.85;;;;;;;2.97;92.55;99683.97;5051579;28;20079;-38
2022/03/06 02:27:41;;;;;;;35.13;17.98;;;;;;;2.91;92.84;99674.06;5051906;28;20464;-38
2022/03/06 02:30:08;;;;;;;35.38;16.95;;;;;;;3.01;91.89;99677.41;5052473;28;20020;-37
2022/03/06 02:32:34;;;;;;;29.60;15.38;;;;;;;2.81;92.66;99671.53;5052533;28;20017;-38
2022/03/06 02:34:59;;;;;;;32.38;17.23;;;;;;;2.91;92.42;99674.91;5017925;28;20040;-38
2022/03/06 02:37:24;;;;;;;28.80;14.63;;;;;;;2.72;93.80;99707.47;5052493;28;20508;-38
2022/03/06 02:39:50;;;;;;;34.25;18.80;;;;;;;2.82;93.65;99673.19;5052286;28;20043;-38
2022/03/06 02:42:31;;;;;;;34.65;18.85;;;;;;;2.83;92.82;99697.66;5052109;28;20017;-38
2022/03/06 02:44:58;;;;;;;35.55;18.95;;;;;;;2.98;92.60;99680.34;5052330;28;20040;-38
2022/03/06 02:47:24;;;;;;;32.60;17.42;;;;;;;2.92;91.84;99686.22;5052200;28;20017;-39
2022/03/06 02:49:49;;;;;;;28.23;14.07;;;;;;;2.57;92.96;99674.84;5034426;28;20393;-39
2022/03/06 02:52:15;;;;;;;30.27;15.63;;;;;;;2.55;93.14;99684.66;5069348;28;20028;-39
2022/03/06 02:54:40;;;;;;;30.27;14.55;;;;;;;2.69;92.31;99689.38;5071905;28;20202;-39
2022/03/06 02:57:06;;;;;;;28.98;15.77;;;;;;;2.57;92.07;99690.59;5071857;28;20055;-39
2022/03/06 02:59:32;;;;;;;31.38;16.13;;;;;;;2.64;91.45;99688.19;5071862;28;20522;-38
2022/03/06 03:01:58;;;;;;;30.67;16.50;;;;;;;2.40;92.24;99681.78;5071873;28;20020;-38
2022/03/06 03:04:23;;;;;;;30.23;15.57;;;;;;;2.57;93.03;99680.09;5071728;28;20032;-39
2022/03/06 03:06:50;;;;;;;32.47;15.90;;;;;;;2.62;92.07;99688.31;5071571;28;20024;-38
2022/03/06 03:09:17;;;;;;;28.15;14.98;;;;;;;2.52;91.49;99691.06;5071351;28;20021;-37
2022/03/06 03:11:42;;;;;;;29.05;14.60;;;;;;;2.57;92.85;99684.50;5053126;28;20024;-38
2022/03/06 03:14:08;;;;;;;29.35;14.48;;;;;;;2.30;93.03;99699.41;5071719;28;20413;-38
2022/03/06 03:16:33;;;;;;;29.05;15.77;;;;;;;2.44;91.92;99682.28;5071748;28;20024;-40
2022/03/06 03:18:58;;;;;;;31.58;15.38;;;;;;;2.26;92.16;99679.66;5071871;28;20028;-39
2022/03/06 03:21:24;;;;;;;27.15;14.20;;;;;;;2.15;93.21;99693.84;5072337;28;20040;-38
2022/03/06 03:23:49;;;;;;;30.38;14.55;;;;;;;2.27;92.34;99700.53;5071764;28;20109;-38
2022/03/06 03:26:15;;;;;;;26.30;14.65;;;;;;;2.48;91.74;99699.41;5063344;28;20032;-38
2022/03/06 03:28:40;;;;;;;27.70;14.60;;;;;;;2.51;92.11;99691.19;5051801;28;20381;-38
2022/03/06 03:31:06;;;;;;;31.00;16.40;;;;;;;2.60;90.94;99692.09;5051687;28;20397;-38
2022/03/06 03:33:31;;;;;;;28.88;14.68;;;;;;;2.49;90.39;99703.66;5051490;28;20025;-38
2022/03/06 03:35:57;;;;;;;22.10;12.38;;;;;;;2.33;91.24;99701.75;5051389;28;20021;-38
2022/03/06 03:38:22;;;;;;;28.75;14.45;;;;;;;2.30;91.59;99721.25;5051336;28;20017;-38
2022/03/06 03:40:48;;;;;;;28.83;14.02;;;;;;;2.32;91.99;99700.91;5051303;28;20029;-38
2022/03/06 03:43:13;;;;;;;27.35;13.45;;;;;;;2.24;91.96;99703.44;5051274;28;20033;-38
2022/03/06 03:45:39;;;;;;;31.35;16.10;;;;;;;2.31;92.08;99701.06;5051347;28;20035;-38
2022/03/06 03:48:04;;;;;;;29.17;15.70;;;;;;;2.39;91.83;99711.63;5051034;28;20025;-39
2022/03/06 03:50:30;;;;;;;28.77;15.10;;;;;;;2.29;91.59;99708.28;5054441;28;20472;-38
2022/03/06 03:52:55;;;;;;;23.63;13.00;;;;;;;1.95;93.26;99712.38;5071147;28;20025;-37
2022/03/06 03:55:21;;;;;;;24.65;13.63;;;;;;;1.80;93.09;99705.16;5071179;28;20039;-38
2022/03/06 03:57:46;;;;;;;25.10;13.55;;;;;;;2.03;93.34;99697.69;5071006;28;20021;-37
2022/03/06 04:00:12;;;;;;;27.25;14.82;;;;;;;1.97;93.03;99700.91;5071307;28;20028;-52
2022/03/06 04:02:37;;;;;;;29.70;14.52;;;;;;;1.83;92.94;99721.44;5053257;28;20028;-51
2022/03/06 04:05:03;;;;;;;30.83;14.00;;;;;;;2.11;93.97;99700.38;5070996;28;20100;-50
2022/03/06 04:07:29;;;;;;;34.38;15.68;;;;;;;2.01;92.85;99726.69;5070692;28;20032;-52
2022/03/06 04:09:54;;;;;;;29.35;14.93;;;;;;;2.15;92.01;99704.34;5070738;28;20028;-49
2022/03/06 04:12:20;;;;;;;24.83;12.57;;;;;;;1.85;92.71;99727.38;5070946;28;20028;-51
2022/03/06 04:14:45;;;;;;;31.02;15.95;;;;;;;2.06;92.96;99708.72;5070459;28;20029;-52
2022/03/06 04:17:10;;;;;;;30.25;14.73;;;;;;;1.83;92.78;99702.22;5070962;28;20016;-51
2022/03/06 04:19:36;;;;;;;28.63;14.05;;;;;;;1.84;92.63;99703.88;5070975;28;20086;-53
2022/03/06 04:22:02;;;;;;;29.75;14.75;;;;;;;1.86;93.74;99717.69;5073143;28;20036;-53
2022/03/06 04:24:27;;;;;;;29.77;15.55;;;;;;;1.83;93.99;99708.31;5074605;28;20045;-50
2022/03/06 04:26:52;;;;;;;31.90;14.63;;;;;;;1.81;93.52;99717.28;5060870;28;20021;-53
2022/03/06 04:29:18;;;;;;;29.35;15.10;;;;;;;1.72;94.46;99711.97;5054559;28;20021;-52
2022/03/06 04:31:43;;;;;;;32.92;16.40;;;;;;;1.78;94.52;99707.94;5054582;28;20496;-52
2022/03/06 04:34:09;;;;;;;37.25;16.30;;;;;;;2.04;93.38;99712.47;5054507;28;20017;-50
2022/03/06 04:36:35;;;;;;;30.52;15.35;;;;;;;2.23;92.15;99717.56;5054545;28;20033;-52
2022/03/06 04:39:00;;;;;;;33.97;17.55;;;;;;;2.07;92.81;99714.78;5054217;28;20013;-52
2022/03/06 04:41:26;;;;;;;25.60;13.40;;;;;;;1.96;91.96;99713.19;5054599;28;20024;-52
2022/03/06 04:43:52;;;;;;;33.72;15.32;;;;;;;1.85;92.68;99711.63;5036379;28;20025;-51
2022/03/06 04:46:18;;;;;;;32.97;16.58;;;;;;;2.13;92.95;99706.31;5054334;28;20377;-52
2022/03/06 04:48:43;;;;;;;30.60;15.35;;;;;;;1.92;92.67;99707.44;5054323;28;20492;-53
2022/03/06 04:51:09;;;;;;;35.78;17.20;;;;;;;2.20;92.73;99709.16;5062539;28;20415;-50
2022/03/06 04:53:34;;;;;;;29.90;14.77;;;;;;;1.81;92.78;99717.28;5070472;28;20021;-53
2022/03/06 04:56:00;;;;;;;30.58;15.15;;;;;;;1.68;93.27;99718.47;5054248;28;20029;-53
2022/03/06 04:58:25;;;;;;;34.53;16.05;;;;;;;1.74;94.48;99715.25;5054350;28;20024;-53
2022/03/06 05:00:51;;;;;;;34.88;15.55;;;;;;;1.71;94.62;99712.94;5054476;28;20033;-52
2022/03/06 05:03:16;;;;;;;27.92;15.00;;;;;;;1.83;93.98;99708.31;5054113;28;20454;-53
2022/03/06 05:05:42;;;;;;;34.47;16.08;;;;;;;1.89;93.86;99720.03;5054031;28;20484;-52
2022/03/06 05:08:07;;;;;;;36.97;16.00;;;;;;;1.91;93.32;99723.31;5053821;28;20075;-52
2022/03/06 05:10:33;;;;;;;34.75;16.70;;;;;;;2.06;92.61;99721.84;5053904;28;20032;-50
2022/03/06 05:12:58;;;;;;;30.83;15.93;;;;;;;1.94;91.26;99736.13;5036219;28;20028;-49
2022/03/06 05:15:24;;;;;;;32.83;15.57;;;;;;;1.92;93.56;99732.84;5054031;28;20017;-50
2022/03/06 05:17:50;;;;;;;35.88;17.52;;;;;;;2.08;92.81;99721.69;5053351;28;20095;-50
2022/03/06 05:20:19;;;;;;;32.25;16.17;;;;;;;1.97;92.32;99733.22;5019498;28;20031;-49
2022/03/06 05:22:45;;;;;;;37.10;17.38;;;;;;;1.91;92.65;99736.44;5053885;28;20049;-49
2022/03/06 05:25:12;;;;;;;37.40;18.65;;;;;;;2.14;92.42;99735.03;5035713;28;20422;-49
2022/03/06 05:27:39;;;;;;;32.58;15.80;;;;;;;1.90;93.35;99724.28;5035413;28;20036;-50
2022/03/06 05:30:05;;;;;;;36.65;16.27;;;;;;;1.93;92.86;99731.88;5019035;28;20036;-49
2022/03/06 05:32:31;;;;;;;38.20;17.02;;;;;;;1.98;93.05;99729.66;5053172;28;20029;-49
2022/03/06 05:34:56;;;;;;;33.42;16.90;;;;;;;1.88;92.71;99731.47;5053324;28;20108;-50
2022/03/06 05:37:22;;;;;;;33.88;16.17;;;;;;;1.80;93.65;99740.09;5053210;28;20017;-49
2022/03/06 05:39:47;;;;;;;33.42;16.23;;;;;;;1.69;94.69;99729.78;5053420;28;20476;-49
2022/03/06 05:42:14;;;;;;;37.13;16.80;;;;;;;1.91;93.69;99728.56;5053250;28;20020;-49
2022/03/06 05:44:40;;;;;;;32.20;16.15;;;;;;;1.85;93.19;99743.13;5053343;28;20044;-50
2022/03/06 05:47:06;;;;;;;39.55;17.98;;;;;;;2.07;93.25;99733.16;5052828;28;20373;-49
2022/03/06 05:49:31;;;;;;;34.70;17.15;;;;;;;2.05;92.69;99738.56;5052746;28;20558;-49
2022/03/06 05:51:57;;;;;;;33.45;16.35;;;;;;;2.04;92.00;99741.34;5068048;28;20035;-49
2022/03/06 05:54:22;;;;;;;36.53;16.80;;;;;;;1.85;92.80;99750.16;5073048;28;20081;-50
2022/03/06 05:56:47;;;;;;;45.15;17.85;;;;;;;1.94;92.26;99757.97;5073346;28;20094;-49
2022/03/06 05:59:13;;;;;;;38.70;18.27;;;;;;;1.81;93.92;99752.25;5072836;28;20028;-50
2022/03/06 06:01:38;;;;;;;33.17;15.32;;;;;;;1.52;94.02;99755.84;5051451;28;20033;-49
2022/03/06 06:04:04;;;;;;;40.45;20.20;;;;;;;1.68;95.04;99760.47;5037630;28;20032;-50
2022/03/06 06:06:29;;;;;;;35.00;16.83;;;;;;;1.77;94.19;99753.50;5031999;28;20032;-50
2022/03/06 06:08:55;;;;;;;29.33;14.32;;;;;;;1.46;95.24;99763.47;5032651;28;20122;-52
2022/03/06 06:11:20;;;;;;;36.28;17.42;;;;;;;1.58;95.40;99759.69;5036864;28;20036;-49
2022/03/06 06:13:46;;;;;;;37.80;17.52;;;;;;;1.58;94.60;99756.22;5035259;28;20157;-52
2022/03/06 06:16:11;;;;;;;42.20;20.08;;;;;;;1.72;94.29;99743.44;5039655;28;20096;-52
2022/03/06 06:18:37;;;;;;;32.97;16.15;;;;;;;1.86;92.89;99752.63;5041570;28;20028;-50
2022/03/06 06:21:03;;;;;;;37.47;17.30;;;;;;;1.62;93.61;99766.28;5051773;28;20468;-50
2022/03/06 06:23:28;;;;;;;40.88;20.73;;;;;;;1.72;95.02;99761.00;5050184;28;20055;-49
2022/03/06 06:25:54;;;;;;;32.63;16.08;;;;;;;1.59;94.66;99763.13;5050529;28;20017;-49
2022/03/06 06:28:19;;;;;;;45.53;19.33;;;;;;;1.61;94.31;99769.06;5049415;28;20029;-50
2022/03/06 06:30:45;;;;;;;42.25;18.00;;;;;;;1.70;94.65;99762.94;5031758;28;20029;-50
2022/03/06 06:33:10;;;;;;;32.95;16.33;;;;;;;1.70;94.54;99760.31;5049950;28;20079;-50
2022/03/06 06:35:36;;;;;;;32.33;16.38;;;;;;;1.62;94.96;99781.19;5049736;28;20116;-50
2022/03/06 06:38:02;;;;;;;38.70;18.15;;;;;;;1.79;94.30;99751.56;5050205;28;20668;-52
2022/03/06 06:40:28;;;;;;;35.95;16.80;;;;;;;1.51;95.67;99766.47;5049632;28;20028;-52
2022/03/06 06:42:53;;;;;;;36.15;16.80;;;;;;;1.52;95.35;99775.97;5031804;28;20086;-50
2022/03/06 06:45:19;;;;;;;39.92;18.30;;;;;;;1.56;95.44;99787.84;5048806;28;20021;-50
2022/03/06 06:47:44;;;;;;;41.28;17.80;;;;;;;1.56;95.37;99772.94;5050852;28;20064;-50
2022/03/06 06:50:09;;;;;;;37.75;16.60;;;;;;;1.47;94.31;99783.47;5050285;28;20543;-52
2022/03/06 06:52:35;;;;;;;42.78;19.13;;;;;;;1.76;95.36;99789.41;5059195;28;20100;-50
2022/03/06 06:55:01;;;;;;;43.45;21.02;;;;;;;1.83;94.04;99760.81;5051128;28;20021;-51
2022/03/06 06:57:26;;;;;;;40.63;18.58;;;;;;;2.04;93.42;99780.72;5051094;28;20017;-50
2022/03/06 06:59:52;;;;;;;42.17;19.50;;;;;;;1.85;93.12;99777.22;5051063;28;20021;-51
2022/03/06 07:02:17;;;;;;;38.85;18.65;;;;;;;1.73;93.29;99768.72;5051176;28;20029;-52
2022/03/06 07:04:42;;;;;;;41.67;19.83;;;;;;;1.92;93.69;99773.06;5051024;28;20025;-52
2022/03/06 07:07:08;;;;;;;37.90;18.05;;;;;;;1.93;92.71;99777.31;5050899;28;20029;-49
2022/03/06 07:09:33;;;;;;;41.60;19.45;;;;;;;1.93;93.68;99769.44;5051063;28;20033;-52
2022/03/06 07:11:59;;;;;;;42.58;19.40;;;;;;;2.11;93.48;99764.22;5051082;28;20033;-51
2022/03/06 07:14:24;;;;;;;39.40;19.15;;;;;;;2.10;93.09;99780.13;5034122;28;20458;-50
2022/03/06 07:16:50;;;;;;;37.22;17.00;;;;;;;1.97;93.03;99772.59;5031126;28;20632;-52
2022/03/06 07:19:17;;;;;;;35.92;16.73;;;;;;;2.02;93.36;99773.00;5030862;28;20028;-52
2022/03/06 07:21:44;;;;;;;38.10;17.38;;;;;;;1.65;94.05;99739.75;5030587;28;20444;-52
2022/03/06 07:24:09;;;;;;;36.33;17.48;;;;;;;2.18;93.35;99774.13;5030715;28;20061;-51
2022/03/06 07:26:35;;;;;;;35.67;17.02;;;;;;;2.27;92.16;99775.88;5030881;28;20036;-49
2022/03/06 07:29:00;;;;;;;36.50;18.05;;;;;;;1.98;93.08;99778.66;5030523;28;20403;-53
2022/03/06 07:31:26;;;;;;;32.28;15.50;;;;;;;1.94;93.23;99776.34;5048555;28;20025;-50
2022/03/06 07:33:51;;;;;;;32.05;17.00;;;;;;;2.09;92.80;99774.03;5050321;28;20029;-40
2022/03/06 07:36:17;;;;;;;30.58;14.27;;;;;;;2.13;91.73;99792.94;5050658;28;20018;-39
2022/03/06 07:38:42;;;;;;;31.00;16.02;;;;;;;2.23;91.53;99772.72;5050781;28;20013;-37
2022/03/06 07:41:08;;;;;;;25.25;11.38;;;;;;;1.98;91.73;99774.25;5050801;28;20028;-38
2022/03/06 07:43:35;;;;;;;26.88;12.82;;;;;;;1.93;92.42;99774.69;5050444;28;20040;-38
2022/03/06 07:46:01;;;;;;;31.58;16.13;;;;;;;1.88;93.48;99776.09;5050169;28;20032;-38
2022/03/06 07:48:26;;;;;;;30.15;14.13;;;;;;;1.92;92.43;99783.56;5050477;28;20075;-50
2022/03/06 07:50:52;;;;;;;25.17;12.38;;;;;;;1.76;92.73;99793.84;5056300;28;20029;-51
2022/03/06 07:53:17;;;;;;;30.35;13.90;;;;;;;1.62;93.65;99794.31;5070369;28;20025;-52
2022/03/06 07:55:43;;;;;;;29.60;15.25;;;;;;;1.48;94.19;99759.72;5052694;28;20105;-39
2022/03/06 07:58:08;;;;;;;31.02;16.52;;;;;;;1.83;94.20;99773.06;5074336;28;20017;-37
2022/03/06 08:00:34;;;;;;;30.20;14.45;;;;;;;2.00;91.70;99780.19;5074741;28;20051;-38
2022/03/06 08:02:59;;;;;;;26.88;14.30;;;;;;;1.71;94.07;99769.81;5074546;28;20423;-38
2022/03/06 08:05:25;;;;;;;34.22;17.25;;;;;;;1.67;94.62;99776.34;5074336;28;20034;-38
2022/03/06 08:07:50;;;;;;;30.10;14.48;;;;;;;1.65;94.78;99779.09;5074419;28;20016;-38
2022/03/06 08:10:16;;;;;;;28.27;14.88;;;;;;;1.84;93.28;99775.56;5056143;28;20024;-38
2022/03/06 08:12:42;;;;;;;32.05;16.67;;;;;;;1.99;92.66;99767.22;5057385;28;20036;-38
2022/03/06 08:15:09;;;;;;;33.70;16.75;;;;;;;1.99;92.62;99773.28;5019693;28;20032;-38
2022/03/06 08:17:35;;;;;;;30.45;15.35;;;;;;;2.02;91.98;99785.28;5053901;28;20560;-39
2022/03/06 08:20:01;;;;;;;31.15;14.50;;;;;;;1.70;92.51;99771.63;5053930;28;20425;-38
2022/03/06 08:22:26;;;;;;;27.55;12.65;;;;;;;1.90;92.55;99774.16;5055922;28;20087;-38
2022/03/06 08:24:54;;;;;;;27.52;12.98;;;;;;;1.75;91.67;99795.66;5073683;28;20089;-38
2022/03/06 08:27:19;;;;;;;26.70;14.32;;;;;;;1.49;94.03;99790.22;5073592;28;20110;-38
2022/03/06 08:29:45;;;;;;;31.70;15.07;;;;;;;1.85;93.39;99776.41;5073555;28;20469;-37
2022/03/06 08:32:10;;;;;;;30.77;15.77;;;;;;;1.92;92.62;99765.19;5074010;28;20021;-37
2022/03/06 08:34:36;;;;;;;31.90;16.40;;;;;;;2.09;92.54;99767.97;5073991;28;20029;-37
2022/03/06 08:37:01;;;;;;;30.73;16.67;;;;;;;2.10;91.69;99773.06;5074182;28;20024;-37
2022/03/06 08:39:27;;;;;;;29.40;14.90;;;;;;;1.88;91.67;99766.41;5073929;28;20035;-37
2022/03/06 08:41:52;;;;;;;27.88;14.00;;;;;;;1.76;91.79;99784.16;5074011;28;20029;-37
2022/03/06 08:44:18;;;;;;;28.92;14.20;;;;;;;1.75;92.18;99765.94;5073432;28;20660;-51
2022/03/06 08:46:43;;;;;;;38.38;18.92;;;;;;;1.64;92.60;99768.75;5072911;28;20024;-51
2022/03/06 08:49:09;;;;;;;31.55;16.75;;;;;;;1.95;91.18;99767.50;5072505;28;20033;-50
2022/03/06 08:51:35;;;;;;;27.80;13.63;;;;;;;1.78;91.81;99778.78;5061006;28;20029;-50
2022/03/06 08:54:01;;;;;;;33.15;16.33;;;;;;;1.70;92.32;99769.00;5052172;28;20465;-51
2022/03/06 08:56:26;;;;;;;32.25;16.60;;;;;;;1.91;92.15;99776.63;5053003;28;20032;-52
2022/03/06 08:58:52;;;;;;;31.30;15.43;;;;;;;1.94;90.67;99778.97;5052211;28;20033;-38
2022/03/06 09:01:17;;;;;;;30.23;13.38;;;;;;;1.72;90.93;99784.63;5053252;28;20056;-53
2022/03/06 09:03:43;;;;;;;32.05;15.35;;;;;;;1.74;92.00;99774.78;5053341;28;20040;-49
2022/03/06 09:06:08;;;;;;;29.48;14.75;;;;;;;1.60;92.34;99788.38;5053491;28;20519;-52
2022/03/06 09:08:33;;;;;;;30.30;15.88;;;;;;;1.70;92.16;99769.00;5052722;28;20194;-49
2022/03/06 09:10:59;;;;;;;32.38;15.65;;;;;;;1.81;92.81;99772.41;5053253;28;20477;-52
2022/03/06 09:13:24;;;;;;;38.17;17.73;;;;;;;1.89;91.71;99775.97;5035133;28;20036;-51
2022/03/06 09:15:50;;;;;;;29.02;15.02;;;;;;;1.84;91.17;99783.44;5052479;28;20135;-49
2022/03/06 09:18:16;;;;;;;30.08;15.05;;;;;;;1.67;91.92;99785.03;5052751;28;20033;-52
2022/03/06 09:20:42;;;;;;;29.73;15.18;;;;;;;1.89;91.48;99783.00;5052939;28;20033;-51
2022/03/06 09:23:09;;;;;;;43.10;16.85;;;;;;;4.02;100.00;99786.38;5052565;28;20129;-50
2022/03/06 09:25:34;;;;;;;33.85;17.80;;;;;;;3.35;84.23;99792.34;5052939;28;20033;-50
2022/03/06 09:28:01;;;;;;;31.92;15.30;;;;;;;2.67;85.53;99790.38;5052690;28;20056;-52
2022/03/06 09:30:27;;;;;;;29.17;15.32;;;;;;;2.17;88.39;99796.94;5052786;28;20033;-51
2022/03/06 09:32:53;;;;;;;26.42;14.38;;;;;;;2.14;89.48;99805.94;5052659;28;20469;-49
2022/03/06 09:35:18;;;;;;;26.95;13.35;;;;;;;2.07;89.52;99801.41;5052454;28;20461;-51
2022/03/06 09:37:43;;;;;;;27.20;14.60;;;;;;;1.75;90.03;99797.44;5052450;28;20032;-51
2022/03/06 09:40:09;;;;;;;26.52;13.63;;;;;;;1.79;90.74;99780.44;5052130;28;20017;-53
2022/03/06 09:42:35;;;;;;;25.83;14.10;;;;;;;2.03;90.51;99800.88;5052148;28;20131;-50
2022/03/06 09:45:05;;;;;;;29.90;14.43;;;;;;;1.91;90.53;99784.50;5052049;28;20385;-51
2022/03/06 09:47:30;;;;;;;29.75;15.32;;;;;;;1.91;91.88;99786.31;5051945;28;20040;-52
2022/03/06 09:49:56;;;;;;;31.65;14.68;;;;;;;2.22;90.09;99783.38;5051931;28;20029;-51
2022/03/06 09:52:21;;;;;;;25.10;13.20;;;;;;;1.90;90.07;99793.34;5070525;28;20064;-52
2022/03/06 09:54:47;;;;;;;27.90;14.45;;;;;;;2.24;89.72;99784.84;5072394;28;20487;-50
2022/03/06 09:57:17;;;;;;;29.65;15.07;;;;;;;1.84;90.14;99790.50;5072328;28;20489;-52
2022/03/06 09:59:42;;;;;;;;;;;;;;;1.90;91.65;99780.22;5045054;28;20433;-53
2022/03/06 10:02:09;;;;;;;27.48;13.52;;;;;;;1.87;91.48;99785.78;5034082;28;19908;-49
2022/03/06 10:04:35;;;;;;;31.75;14.93;;;;;;;1.89;91.43;99788.25;5052030;28;20028;-50
2022/03/06 10:07:08;;;;;;;25.98;12.10;;;;;;;1.59;91.69;99794.63;5050874;28;20041;-50
2022/03/06 10:09:44;;;;;;;25.42;12.93;;;;;;;1.65;91.96;99797.47;5051679;28;20017;-50
2022/03/06 10:12:23;;;;;;;28.38;13.82;;;;;;;1.91;91.65;99781.06;5051006;28;20021;-51
2022/03/06 10:14:50;;;;;;;25.95;13.95;;;;;;;1.84;91.16;99782.63;5051172;28;20066;-51
2022/03/06 10:17:18;;;;;;;28.02;13.50;;;;;;;2.10;90.28;99774.88;5051021;28;20033;-50
2022/03/06 10:19:59;;;;;;;24.85;12.52;;;;;;;1.96;89.82;99778.81;5050457;28;20116;-52
2022/03/06 10:22:25;;;;;;;;;;;;;;;1.59;91.96;99778.88;5051057;28;20101;-49
2022/03/06 10:24:52;;;;;;;24.15;11.77;;;;;;;1.64;92.09;99771.38;5050717;28;19932;-52
2022/03/06 10:27:42;;;;;;;25.38;13.23;;;;;;;1.72;92.04;99766.25;5051287;28;20029;-50
2022/03/06 10:30:24;;;;;;;24.25;12.80;;;;;;;1.68;91.07;99765.72;5047728;28;20461;-52
2022/03/06 10:32:49;;;;;;;23.13;11.63;;;;;;;1.47;92.66;99773.81;5031556;28;20066;-54
2022/03/06 10:35:15;;;;;;;24.52;13.52;;;;;;;1.73;92.28;99784.47;5040910;28;20021;-53
2022/03/06 10:37:40;;;;;;;24.75;12.35;;;;;;;1.78;91.62;99781.41;5051593;28;20196;-55
2022/03/06 10:40:07;;;;;;;24.77;13.50;;;;;;;2.07;90.50;99769.91;5036179;28;20041;-54
2022/03/06 10:42:33;;;;;;;26.55;13.10;;;;;;;2.00;89.92;99763.59;5031339;28;20444;-52
2022/03/06 10:44:58;;;;;;;26.27;14.38;;;;;;;2.25;89.31;99776.03;5013573;28;20033;-39
2022/03/06 10:47:24;;;;;;;26.50;13.60;;;;;;;1.89;89.17;99762.84;5043645;28;20036;-39
2022/03/06 10:50:05;;;;;;;24.17;12.90;;;;;;;1.80;91.20;99768.13;5051147;28;20036;-39
2022/03/06 10:52:31;;;;;;;23.80;12.13;;;;;;;1.83;91.37;99771.31;5070725;28;20021;-41
2022/03/06 10:54:57;;;;;;;25.20;12.63;;;;;;;2.01;91.20;99760.81;5036428;28;20025;-40
2022/03/06 10:57:23;;;;;;;25.45;12.32;;;;;;;1.84;90.52;99757.19;5071233;28;20023;-38
2022/03/06 10:59:49;;;;;;;25.08;13.18;;;;;;;1.84;91.23;99754.56;5070796;28;20020;-52
2022/03/06 11:02:15;;;;;;;25.35;12.38;;;;;;;1.84;90.72;99756.38;5067210;28;20461;-54
2022/03/06 11:04:40;;;;;;;23.23;12.02;;;;;;;1.76;90.72;99755.31;5032983;28;20072;-53
2022/03/06 11:07:06;;;;;;;25.05;12.32;;;;;;;1.80;90.41;99745.34;5016785;28;20021;-53
2022/03/06 11:09:31;;;;;;;23.92;12.60;;;;;;;1.67;91.67;99748.31;5050692;28;20016;-50
2022/03/06 11:11:57;;;;;;;27.55;13.32;;;;;;;2.10;90.25;99738.13;5033072;28;20040;-39
2022/03/06 11:14:22;;;;;;;25.02;12.82;;;;;;;2.25;90.00;99743.69;5050967;28;20028;-38
2022/03/06 11:16:48;;;;;;;27.65;14.23;;;;;;;2.49;94.39;99740.44;5050123;28;20028;-38
2022/03/06 11:19:14;;;;;;;24.88;11.85;;;;;;;2.32;90.50;99731.59;5014663;28;20110;-39
2022/03/06 11:21:40;;;;;;;24.55;12.52;;;;;;;2.19;89.76;99736.38;5037368;28;20547;-38